sensor_id;sensor_type;location;lat;lon;timestamp;pressure;altitude;pressure_sealevel;temperature;humidity
44663;BME280;30381;52.754;18.258;2023-02-28T07:14:55;102371.11;;;0.04;100.00
44663;BME280;30381;52.754;18.258;2023-02-28T07:17:23;102370.43;;;0.14;100.00
44663;BME280;30381;52.754;18.258;2023-02-28T07:19:54;102371.10;;;0.25;100.00
44663;BME280;30381;52.754;18.258;2023-02-28T07:22:21;102369.36;;;0.37;100.00
44663;BME280;30381;52.754;18.258;2023-02-28T07:24:49;102368.23;;;0.47;100.00
44663;BME280;30381;52.754;18.258;2023-02-28T07:27:18;102369.59;;;0.56;100.00
44663;BME280;30381;52.754;18.258;2023-02-28T07:29:51;102370.50;;;0.62;100.00
44663;BME280;30381;52.754;18.258;2023-02-28T07:32:19;102372.14;;;0.64;100.00
44663;BME280;30381;52.754;18.258;2023-02-28T07:34:45;102373.34;;;0.66;100.00
44663;BME280;30381;52.754;18.258;2023-02-28T07:37:12;102372.73;;;0.73;100.00
44663;BME280;30381;52.754;18.258;2023-02-28T07:39:41;102375.98;;;0.80;100.00
44663;BME280;30381;52.754;18.258;2023-02-28T07:42:09;102371.75;;;0.87;100.00
44663;BME280;30381;52.754;18.258;2023-02-28T07:44:41;102370.55;;;0.94;100.00
44663;BME280;30381;52.754;18.258;2023-02-28T07:47:10;102369.77;;;0.99;100.00
44663;BME280;30381;52.754;18.258;2023-02-28T07:49:38;102360.80;;;1.04;100.00
44663;BME280;30381;52.754;18.258;2023-02-28T07:52:06;102361.20;;;1.10;100.00
44663;BME280;30381;52.754;18.258;2023-02-28T07:54:35;102361.93;;;1.12;100.00
44663;BME280;30381;52.754;18.258;2023-02-28T07:57:03;102366.44;;;1.15;100.00
44663;BME280;30381;52.754;18.258;2023-02-28T07:59:31;102371.20;;;1.22;100.00
44663;BME280;30381;52.754;18.258;2023-02-28T08:01:59;102373.98;;;1.33;100.00
44663;BME280;30381;52.754;18.258;2023-02-28T08:04:27;102370.77;;;1.43;100.00
44663;BME280;30381;52.754;18.258;2023-02-28T08:06:54;102371.64;;;1.55;100.00
44663;BME280;30381;52.754;18.258;2023-02-28T08:09:22;102367.62;;;1.70;100.00
44663;BME280;30381;52.754;18.258;2023-02-28T08:11:48;102367.66;;;1.84;100.00
44663;BME280;30381;52.754;18.258;2023-02-28T08:14:14;102368.67;;;1.94;100.00
44663;BME280;30381;52.754;18.258;2023-02-28T08:16:41;102368.35;;;2.11;100.00
44663;BME280;30381;52.754;18.258;2023-02-28T08:19:09;102369.13;;;2.26;100.00
44663;BME280;30381;52.754;18.258;2023-02-28T08:21:40;102369.95;;;2.39;100.00
44663;BME280;30381;52.754;18.258;2023-02-28T08:24:08;102374.31;;;2.49;100.00
44663;BME280;30381;52.754;18.258;2023-02-28T08:26:34;102380.55;;;2.64;100.00
44663;BME280;30381;52.754;18.258;2023-02-28T08:29:00;102386.21;;;2.74;100.00
44663;BME280;30381;52.754;18.258;2023-02-28T08:31:27;102390.61;;;2.92;100.00
44663;BME280;30381;52.754;18.258;2023-02-28T08:33:53;102393.42;;;3.11;100.00
44663;BME280;30381;52.754;18.258;2023-02-28T08:36:23;102391.71;;;3.27;100.00
44663;BME280;30381;52.754;18.258;2023-02-28T08:38:50;102391.67;;;3.44;100.00
44663;BME280;30381;52.754;18.258;2023-02-28T08:41:16;102394.67;;;3.65;100.00
44663;BME280;30381;52.754;18.258;2023-02-28T08:46:11;102398.67;;;3.91;100.00
44663;BME280;30381;52.754;18.258;2023-02-28T08:48:40;102397.95;;;4.01;100.00
44663;BME280;30381;52.754;18.258;2023-02-28T08:51:12;102401.46;;;4.01;100.00
44663;BME280;30381;52.754;18.258;2023-02-28T08:53:39;102401.41;;;4.05;100.00
44663;BME280;30381;52.754;18.258;2023-02-28T08:56:08;102403.91;;;4.13;100.00
44663;BME280;30381;52.754;18.258;2023-02-28T08:58:35;102401.11;;;4.17;100.00
44663;BME280;30381;52.754;18.258;2023-02-28T09:01:07;102402.83;;;4.18;100.00
44663;BME280;30381;52.754;18.258;2023-02-28T09:03:35;102401.09;;;4.21;100.00
44663;BME280;30381;52.754;18.258;2023-02-28T09:06:03;102399.39;;;4.22;100.00
44663;BME280;30381;52.754;18.258;2023-02-28T09:08:30;102400.73;;;4.23;100.00
44663;BME280;30381;52.754;18.258;2023-02-28T09:10:57;102395.45;;;4.22;100.00
44663;BME280;30381;52.754;18.258;2023-02-28T09:13:25;102393.77;;;4.28;100.00
44663;BME280;30381;52.754;18.258;2023-02-28T09:15:57;102390.48;;;4.38;100.00
44663;BME280;30381;52.754;18.258;2023-02-28T09:18:24;102389.04;;;4.42;100.00
44663;BME280;30381;52.754;18.258;2023-02-28T09:20:50;102384.94;;;4.50;100.00
44663;BME280;30381;52.754;18.258;2023-02-28T09:23:28;102385.44;;;4.54;100.00
44663;BME280;30381;52.754;18.258;2023-02-28T09:26:35;102388.29;;;4.59;100.00
44663;BME280;30381;52.754;18.258;2023-02-28T09:29:24;102383.27;;;4.65;100.00
44663;BME280;30381;52.754;18.258;2023-02-28T09:31:58;102385.11;;;4.73;100.00
44663;BME280;30381;52.754;18.258;2023-02-28T09:34:49;102382.13;;;4.78;100.00
44663;BME280;30381;52.754;18.258;2023-02-28T09:37:38;102383.26;;;4.90;100.00
44663;BME280;30381;52.754;18.258;2023-02-28T09:40:07;102378.21;;;5.01;100.00
44663;BME280;30381;52.754;18.258;2023-02-28T09:42:38;102378.36;;;5.08;100.00
44663;BME280;30381;52.754;18.258;2023-02-28T09:45:24;102378.55;;;5.13;100.00
44663;BME280;30381;52.754;18.258;2023-02-28T09:48:02;102377.91;;;5.24;100.00
44663;BME280;30381;52.754;18.258;2023-02-28T09:50:40;102381.88;;;5.29;100.00
44663;BME280;30381;52.754;18.258;2023-02-28T09:53:26;102380.44;;;5.36;100.00
44663;BME280;30381;52.754;18.258;2023-02-28T09:55:58;102385.02;;;5.45;100.00
44663;BME280;30381;52.754;18.258;2023-02-28T09:58:48;102388.52;;;5.54;100.00
44663;BME280;30381;52.754;18.258;2023-02-28T10:01:23;102391.64;;;5.52;100.00
44663;BME280;30381;52.754;18.258;2023-02-28T10:03:58;102390.75;;;5.43;100.00
44663;BME280;30381;52.754;18.258;2023-02-28T10:06:29;102395.29;;;5.51;100.00
44663;BME280;30381;52.754;18.258;2023-02-28T10:09:27;102392.37;;;5.67;100.00
44663;BME280;30381;52.754;18.258;2023-02-28T10:12:01;102390.95;;;5.80;100.00
44663;BME280;30381;52.754;18.258;2023-02-28T10:14:32;102388.92;;;5.91;100.00
44663;BME280;30381;52.754;18.258;2023-02-28T10:17:23;102387.34;;;5.95;100.00
44663;BME280;30381;52.754;18.258;2023-02-28T10:20:03;102383.21;;;6.01;100.00
44663;BME280;30381;52.754;18.258;2023-02-28T10:25:21;102371.69;;;6.16;100.00
44663;BME280;30381;52.754;18.258;2023-02-28T10:27:53;102375.64;;;6.10;100.00
44663;BME280;30381;52.754;18.258;2023-02-28T10:30:20;102372.55;;;5.88;100.00
44663;BME280;30381;52.754;18.258;2023-02-28T10:32:50;102368.79;;;5.66;100.00
44663;BME280;30381;52.754;18.258;2023-02-28T10:35:21;102367.42;;;5.52;100.00
44663;BME280;30381;52.754;18.258;2023-02-28T10:37:50;102368.11;;;5.49;100.00
44663;BME280;30381;52.754;18.258;2023-02-28T10:43:04;102362.14;;;5.40;100.00
44663;BME280;30381;52.754;18.258;2023-02-28T10:45:32;102360.16;;;5.38;100.00
44663;BME280;30381;52.754;18.258;2023-02-28T10:48:03;102360.60;;;5.39;100.00
44663;BME280;30381;52.754;18.258;2023-02-28T10:53:34;102351.20;;;5.47;100.00
44663;BME280;30381;52.754;18.258;2023-02-28T10:56:06;102344.23;;;5.50;100.00
44663;BME280;30381;52.754;18.258;2023-02-28T10:59:01;102347.77;;;5.55;100.00
44663;BME280;30381;52.754;18.258;2023-02-28T11:04:02;102353.36;;;5.37;100.00
44663;BME280;30381;52.754;18.258;2023-02-28T11:06:32;102353.14;;;5.22;100.00
44663;BME280;30381;52.754;18.258;2023-02-28T11:09:02;102350.56;;;5.36;100.00
44663;BME280;30381;52.754;18.258;2023-02-28T11:11:31;102347.20;;;5.52;100.00
44663;BME280;30381;52.754;18.258;2023-02-28T11:14:26;102344.13;;;5.57;100.00
44663;BME280;30381;52.754;18.258;2023-02-28T11:17:23;102346.48;;;5.56;100.00
44663;BME280;30381;52.754;18.258;2023-02-28T11:19:56;102343.92;;;5.65;100.00
44663;BME280;30381;52.754;18.258;2023-02-28T11:22:27;102340.29;;;5.72;100.00
44663;BME280;30381;52.754;18.258;2023-02-28T11:24:58;102337.03;;;5.69;100.00
44663;BME280;30381;52.754;18.258;2023-02-28T11:27:46;102337.52;;;5.66;100.00
44663;BME280;30381;52.754;18.258;2023-02-28T11:30:39;102337.77;;;5.69;100.00
44663;BME280;30381;52.754;18.258;2023-02-28T11:33:21;102339.09;;;5.72;100.00
44663;BME280;30381;52.754;18.258;2023-02-28T11:35:51;102333.92;;;5.75;100.00
44663;BME280;30381;52.754;18.258;2023-02-28T11:38:24;102327.25;;;5.77;100.00
44663;BME280;30381;52.754;18.258;2023-02-28T11:47:56;102326.02;;;5.61;100.00
44663;BME280;30381;52.754;18.258;2023-02-28T11:56:44;102328.34;;;5.40;100.00
44663;BME280;30381;52.754;18.258;2023-02-28T12:10:22;102312.09;;;5.31;100.00
44663;BME280;30381;52.754;18.258;2023-02-28T12:19:41;102311.57;;;5.53;100.00
44663;BME280;30381;52.754;18.258;2023-02-28T12:27:51;102307.14;;;5.52;100.00
44663;BME280;30381;52.754;18.258;2023-02-28T12:30:34;102310.27;;;5.45;100.00
44663;BME280;30381;52.754;18.258;2023-02-28T12:33:09;102307.95;;;5.36;100.00
44663;BME280;30381;52.754;18.258;2023-02-28T12:35:52;102303.44;;;5.40;100.00
44663;BME280;30381;52.754;18.258;2023-02-28T12:38:34;102300.52;;;5.45;100.00
44663;BME280;30381;52.754;18.258;2023-02-28T12:41:16;102295.73;;;5.47;100.00
44663;BME280;30381;52.754;18.258;2023-02-28T12:43:58;102293.95;;;5.50;100.00
44663;BME280;30381;52.754;18.258;2023-02-28T12:46:36;102287.36;;;5.55;100.00
44663;BME280;30381;52.754;18.258;2023-02-28T12:49:19;102287.48;;;5.55;100.00
44663;BME280;30381;52.754;18.258;2023-02-28T12:51:48;102288.21;;;5.58;100.00
44663;BME280;30381;52.754;18.258;2023-02-28T12:54:29;102286.83;;;5.55;100.00
44663;BME280;30381;52.754;18.258;2023-02-28T12:59:56;102293.24;;;5.47;100.00
44663;BME280;30381;52.754;18.258;2023-02-28T13:17:20;102275.29;;;5.00;100.00
44663;BME280;30381;52.754;18.258;2023-02-28T13:22:42;102275.55;;;4.89;100.00
44663;BME280;30381;52.754;18.258;2023-02-28T13:28:10;102266.97;;;4.86;100.00
44663;BME280;30381;52.754;18.258;2023-02-28T13:33:33;102255.91;;;4.87;100.00
44663;BME280;30381;52.754;18.258;2023-02-28T13:39:03;102246.43;;;4.89;100.00
44663;BME280;30381;52.754;18.258;2023-02-28T13:41:51;102240.25;;;4.89;100.00
44663;BME280;30381;52.754;18.258;2023-02-28T13:44:26;102237.83;;;4.88;100.00
44663;BME280;30381;52.754;18.258;2023-02-28T13:49:32;102231.92;;;4.74;100.00
44663;BME280;30381;52.754;18.258;2023-02-28T16:35:53;102190.62;;;0.61;100.00
44663;BME280;30381;52.754;18.258;2023-02-28T16:38:27;102191.81;;;0.51;100.00
44663;BME280;30381;52.754;18.258;2023-02-28T16:40:58;102191.92;;;0.44;100.00
44663;BME280;30381;52.754;18.258;2023-02-28T20:32:45;102195.57;;;-3.41;100.00
44663;BME280;30381;52.754;18.258;2023-02-28T20:35:12;102194.33;;;-3.43;100.00
44663;BME280;30381;52.754;18.258;2023-02-28T20:37:47;102188.83;;;-3.46;100.00
44663;BME280;30381;52.754;18.258;2023-02-28T20:40:31;102192.91;;;-3.49;100.00
44663;BME280;30381;52.754;18.258;2023-02-28T20:42:57;102191.94;;;-3.52;100.00
44663;BME280;30381;52.754;18.258;2023-02-28T20:45:23;102191.21;;;-3.54;100.00
44663;BME280;30381;52.754;18.258;2023-02-28T20:47:52;102190.52;;;-3.57;100.00
44663;BME280;30381;52.754;18.258;2023-02-28T20:50:19;102188.80;;;-3.60;100.00
44663;BME280;30381;52.754;18.258;2023-02-28T20:52:48;102188.73;;;-3.64;100.00
44663;BME280;30381;52.754;18.258;2023-02-28T20:55:17;102185.65;;;-3.68;100.00
44663;BME280;30381;52.754;18.258;2023-02-28T20:57:44;102183.73;;;-3.71;100.00
44663;BME280;30381;52.754;18.258;2023-02-28T21:00:12;102185.66;;;-3.74;100.00
44663;BME280;30381;52.754;18.258;2023-02-28T21:02:56;102189.27;;;-3.77;100.00
44663;BME280;30381;52.754;18.258;2023-02-28T21:05:23;102192.48;;;-3.80;100.00
44663;BME280;30381;52.754;18.258;2023-02-28T21:07:52;102191.42;;;-3.83;100.00
44663;BME280;30381;52.754;18.258;2023-02-28T21:10:21;102193.37;;;-3.85;100.00
44663;BME280;30381;52.754;18.258;2023-02-28T21:13:04;102191.49;;;-3.86;100.00
44663;BME280;30381;52.754;18.258;2023-02-28T21:15:41;102194.86;;;-3.86;100.00
44663;BME280;30381;52.754;18.258;2023-02-28T21:18:08;102195.62;;;-3.87;100.00
44663;BME280;30381;52.754;18.258;2023-02-28T21:20:36;102190.23;;;-3.88;100.00
44663;BME280;30381;52.754;18.258;2023-02-28T21:23:02;102187.81;;;-3.89;100.00
44663;BME280;30381;52.754;18.258;2023-02-28T21:25:31;102186.07;;;-3.89;100.00
44663;BME280;30381;52.754;18.258;2023-02-28T21:27:58;102187.27;;;-3.89;100.00
44663;BME280;30381;52.754;18.258;2023-02-28T21:30:25;102185.20;;;-3.87;100.00
44663;BME280;30381;52.754;18.258;2023-02-28T21:32:55;102181.89;;;-3.85;100.00
44663;BME280;30381;52.754;18.258;2023-02-28T21:35:51;102184.48;;;-3.81;100.00
44663;BME280;30381;52.754;18.258;2023-02-28T21:38:25;102191.79;;;-3.83;100.00
44663;BME280;30381;52.754;18.258;2023-02-28T21:40:51;102198.16;;;-3.86;100.00
44663;BME280;30381;52.754;18.258;2023-02-28T21:43:44;102196.42;;;-3.89;100.00
44663;BME280;30381;52.754;18.258;2023-02-28T21:46:52;102199.20;;;-3.91;100.00
44663;BME280;30381;52.754;18.258;2023-02-28T21:49:28;102197.05;;;-3.93;100.00
44663;BME280;30381;52.754;18.258;2023-02-28T21:52:42;102195.66;;;-3.93;100.00
44663;BME280;30381;52.754;18.258;2023-02-28T21:55:25;102200.70;;;-3.95;100.00
44663;BME280;30381;52.754;18.258;2023-02-28T21:58:42;102202.73;;;-3.96;100.00
44663;BME280;30381;52.754;18.258;2023-02-28T22:02:07;102198.23;;;-4.00;100.00
44663;BME280;30381;52.754;18.258;2023-02-28T22:07:49;102197.83;;;-4.04;100.00
44663;BME280;30381;52.754;18.258;2023-02-28T22:11:00;102198.23;;;-4.05;100.00
44663;BME280;30381;52.754;18.258;2023-02-28T22:13:36;102197.45;;;-4.06;100.00
44663;BME280;30381;52.754;18.258;2023-02-28T22:16:14;102201.02;;;-4.07;100.00
44663;BME280;30381;52.754;18.258;2023-02-28T22:18:45;102201.32;;;-4.09;100.00
44663;BME280;30381;52.754;18.258;2023-02-28T22:21:31;102197.73;;;-4.11;100.00
44663;BME280;30381;52.754;18.258;2023-02-28T22:24:07;102193.94;;;-4.12;100.00
44663;BME280;30381;52.754;18.258;2023-02-28T22:26:34;102195.46;;;-4.13;100.00
44663;BME280;30381;52.754;18.258;2023-02-28T22:31:49;102189.15;;;-4.17;100.00
44663;BME280;30381;52.754;18.258;2023-02-28T22:34:29;102191.10;;;-4.19;100.00
44663;BME280;30381;52.754;18.258;2023-02-28T22:36:55;102188.80;;;-4.22;100.00
44663;BME280;30381;52.754;18.258;2023-02-28T22:39:22;102192.37;;;-4.22;100.00
44663;BME280;30381;52.754;18.258;2023-02-28T22:41:49;102196.62;;;-4.23;100.00
44663;BME280;30381;52.754;18.258;2023-02-28T22:44:19;102192.77;;;-4.23;100.00
44663;BME280;30381;52.754;18.258;2023-02-28T22:46:55;102184.58;;;-4.22;100.00
44663;BME280;30381;52.754;18.258;2023-02-28T22:49:24;102187.99;;;-4.20;100.00
44663;BME280;30381;52.754;18.258;2023-02-28T22:51:51;102182.10;;;-4.19;100.00
44663;BME280;30381;52.754;18.258;2023-02-28T22:54:17;102180.40;;;-4.17;100.00
44663;BME280;30381;52.754;18.258;2023-02-28T22:56:44;102177.40;;;-4.17;100.00
44663;BME280;30381;52.754;18.258;2023-02-28T22:59:21;102171.77;;;-4.18;100.00
44663;BME280;30381;52.754;18.258;2023-02-28T23:01:50;102172.39;;;-4.19;100.00
44663;BME280;30381;52.754;18.258;2023-02-28T23:04:21;102177.98;;;-4.21;100.00
44663;BME280;30381;52.754;18.258;2023-02-28T23:06:50;102179.84;;;-4.22;100.00
44663;BME280;30381;52.754;18.258;2023-02-28T23:09:18;102178.84;;;-4.20;100.00
44663;BME280;30381;52.754;18.258;2023-02-28T23:11:48;102180.27;;;-4.15;100.00
44663;BME280;30381;52.754;18.258;2023-02-28T23:14:16;102187.23;;;-4.09;100.00
44663;BME280;30381;52.754;18.258;2023-02-28T23:16:45;102190.02;;;-4.06;100.00
44663;BME280;30381;52.754;18.258;2023-02-28T23:19:20;102191.85;;;-4.04;100.00
44663;BME280;30381;52.754;18.258;2023-02-28T23:21:47;102189.02;;;-4.02;100.00
44663;BME280;30381;52.754;18.258;2023-02-28T23:24:15;102190.77;;;-3.99;100.00
44663;BME280;30381;52.754;18.258;2023-02-28T23:26:46;102193.28;;;-3.94;100.00
44663;BME280;30381;52.754;18.258;2023-02-28T23:29:15;102195.02;;;-3.92;100.00
44663;BME280;30381;52.754;18.258;2023-02-28T23:31:42;102199.04;;;-3.91;100.00
44663;BME280;30381;52.754;18.258;2023-02-28T23:34:09;102200.60;;;-3.91;100.00
44663;BME280;30381;52.754;18.258;2023-02-28T23:36:37;102200.00;;;-3.87;100.00
44663;BME280;30381;52.754;18.258;2023-02-28T23:39:04;102196.01;;;-3.78;100.00
44663;BME280;30381;52.754;18.258;2023-02-28T23:41:31;102195.73;;;-3.71;100.00
44663;BME280;30381;52.754;18.258;2023-02-28T23:43:57;102193.98;;;-3.69;100.00
44663;BME280;30381;52.754;18.258;2023-02-28T23:46:23;102188.55;;;-3.67;100.00
44663;BME280;30381;52.754;18.258;2023-02-28T23:48:49;102189.65;;;-3.65;100.00
44663;BME280;30381;52.754;18.258;2023-02-28T23:51:18;102185.01;;;-3.61;100.00
44663;BME280;30381;52.754;18.258;2023-02-28T23:53:47;102184.41;;;-3.58;100.00
44663;BME280;30381;52.754;18.258;2023-02-28T23:56:16;102180.39;;;-3.56;100.00
44663;BME280;30381;52.754;18.258;2023-02-28T23:58:44;102174.77;;;-3.54;100.00
